Sopchoppy, Florida
Current Conditions -  °F | °C
As of 2:53 PM on Monday 22 Dec 2014 (Local Time) from KTLH Reporting Station
Overcast Overcast  
Wind Chill: 64°   Ceiling: 700
Heat Index: 64°   Visibility: 10mi
Dew Point: 60°   Wind: 10mph
Humidity: 87%   Direction: 120°ESE
Pressure: 29.85"   Gusts: NA
Location:  30.06°N, 84.49°W
Report Text: KTLH 221953Z 12009KT 10SM BKN007 OVC040 18/16 A2985 RMK AO2 SLP105 T01780156 $
Loading
Personal Weather Stations






























Interactive Weather Map New forecast layout! Learn more

10-Day Weather Forecast

Advertisements
Track Severe Weather on mobile